Time;durP1;ratioP1;P1;durP2;ratioP2;P2;SDS_P1;SDS_P2;PMS_P1;PMS_P2;Temp;Humidity;BMP_temperature;BMP_pressure;BME280_temperature;BME280_humidity;BME280_pressure;Samples;Min_cycle;Max_cycle;Signal;HPM_P1;HPM_P2
2022/01/29 00:00:59;;;;;;;17.20;3.22;;;;;;;2.12;78.53;101906.16;5031843;28;20536;-71
2022/01/29 00:03:25;;;;;;;22.35;4.68;;;;;;;2.16;78.56;101907.22;5031934;28;20033;-72
2022/01/29 00:05:52;;;;;;;21.40;3.40;;;;;;;2.14;78.62;101901.03;5031715;28;20029;-72
2022/01/29 00:08:18;;;;;;;15.00;3.85;;;;;;;2.19;78.32;101902.16;5031830;28;20041;-71
2022/01/29 00:10:45;;;;;;;23.80;3.70;;;;;;;2.23;78.65;101895.38;5031748;28;20029;-71
2022/01/29 00:13:10;;;;;;;14.48;3.08;;;;;;;2.24;78.65;101894.56;5031816;28;20442;-72
2022/01/29 00:15:36;;;;;;;24.23;3.92;;;;;;;2.24;78.26;101889.34;5031415;28;20033;-71
2022/01/29 00:18:02;;;;;;;16.50;3.90;;;;;;;2.32;78.42;101888.91;5031636;28;20048;-71
2022/01/29 00:20:27;;;;;;;17.35;3.20;;;;;;;2.31;78.00;101881.03;5031604;28;20109;-71
2022/01/29 00:22:53;;;;;;;16.75;3.45;;;;;;;2.29;78.25;101885.28;5031642;28;20503;-71
2022/01/29 00:25:19;;;;;;;22.67;4.47;;;;;;;2.33;78.42;101880.28;5031362;28;20069;-71
2022/01/29 00:27:44;;;;;;;23.33;3.10;;;;;;;2.34;78.06;101874.25;5031600;28;20083;-71
2022/01/29 00:30:14;;;;;;;22.55;3.08;;;;;;;2.35;78.42;101867.31;5030125;28;20037;-71
2022/01/29 00:32:39;;;;;;;18.48;3.20;;;;;;;2.37;78.24;101871.78;5031329;28;20047;-70
2022/01/29 00:35:05;;;;;;;18.00;3.70;;;;;;;2.41;78.31;101867.59;5030045;28;20108;-71
2022/01/29 00:37:31;;;;;;;18.75;3.22;;;;;;;2.45;77.92;101871.28;5031344;28;20508;-70
2022/01/29 00:39:56;;;;;;;20.90;4.03;;;;;;;2.41;78.25;101867.59;5027617;28;20094;-71
2022/01/29 00:42:23;;;;;;;18.55;3.35;;;;;;;2.47;77.99;101862.72;5031334;28;20023;-70
2022/01/29 00:44:49;;;;;;;17.17;3.83;;;;;;;2.51;77.63;101863.75;5030772;28;20431;-71
2022/01/29 00:47:14;;;;;;;21.67;5.03;;;;;;;2.53;77.40;101854.28;5031172;28;20036;-71
2022/01/29 00:49:40;;;;;;;28.42;5.00;;;;;;;2.57;77.57;101851.91;5030566;28;20033;-71
2022/01/29 00:52:06;;;;;;;22.00;4.32;;;;;;;2.60;77.52;101833.78;5031033;28;20033;-70
2022/01/29 00:54:31;;;;;;;17.38;4.30;;;;;;;2.57;77.16;101849.31;5030927;28;20461;-71
2022/01/29 00:56:56;;;;;;;21.90;3.83;;;;;;;2.62;76.87;101842.59;5031137;28;20589;-71
2022/01/29 00:59:22;;;;;;;23.00;4.22;;;;;;;2.63;77.03;101854.78;5026958;28;20411;-71
2022/01/29 01:01:48;;;;;;;17.77;3.45;;;;;;;2.63;77.03;101846.97;5031048;28;20026;-70
2022/01/29 01:04:13;;;;;;;19.35;3.63;;;;;;;2.69;76.73;101845.47;5031003;28;20545;-71
2022/01/29 01:06:39;;;;;;;23.92;4.80;;;;;;;2.71;76.96;101844.72;5029464;28;20040;-71
2022/01/29 01:09:04;;;;;;;19.10;3.40;;;;;;;2.78;76.71;101841.59;5030330;28;20037;-70
2022/01/29 01:11:29;;;;;;;24.67;4.25;;;;;;;2.88;76.03;101839.38;5030923;28;20044;-70
2022/01/29 01:13:55;;;;;;;23.30;4.82;;;;;;;2.98;76.20;101831.16;5030597;28;20126;-71
2022/01/29 01:16:20;;;;;;;16.38;3.38;;;;;;;3.02;75.99;101839.22;5029042;28;20069;-71
2022/01/29 01:18:45;;;;;;;25.83;3.53;;;;;;;3.04;75.43;101836.69;5030881;28;20081;-71
2022/01/29 01:21:11;;;;;;;24.00;4.57;;;;;;;3.11;75.41;101843.94;5030918;28;20030;-71
2022/01/29 01:23:36;;;;;;;21.35;3.58;;;;;;;3.18;75.29;101837.28;5030907;28;20476;-72
2022/01/29 01:26:02;;;;;;;15.00;3.63;;;;;;;3.14;75.09;101828.41;5029337;28;20033;-72
2022/01/29 01:28:28;;;;;;;18.35;3.55;;;;;;;3.16;74.76;101825.91;5030664;28;20037;-71
2022/01/29 01:30:53;;;;;;;14.68;3.75;;;;;;;3.16;74.64;101811.13;5030758;28;20034;-71
2022/01/29 01:33:19;;;;;;;23.90;4.20;;;;;;;3.13;74.78;101807.50;5030699;28;20087;-70
2022/01/29 01:35:50;;;;;;;22.92;4.40;;;;;;;3.12;74.44;101798.78;5030610;28;20399;-71
2022/01/29 01:38:26;;;;;;;14.32;3.30;;;;;;;3.10;74.17;101791.72;5030750;28;20156;-70
2022/01/29 01:40:57;;;;;;;18.55;3.28;;;;;;;3.11;74.19;101785.66;5029513;28;20112;-70
2022/01/29 01:43:22;;;;;;;18.17;3.88;;;;;;;3.15;73.81;101782.38;5027061;28;20045;-71
2022/01/29 01:45:48;;;;;;;19.83;3.50;;;;;;;3.11;74.18;101780.44;5030330;28;20251;-71
2022/01/29 01:48:13;;;;;;;20.08;4.28;;;;;;;3.07;74.02;101775.09;5029087;28;20042;-72
2022/01/29 01:50:39;;;;;;;17.63;6.93;;;;;;;3.13;73.87;101770.97;5030523;28;20515;-71
2022/01/29 01:53:05;;;;;;;21.83;3.65;;;;;;;3.12;73.72;101771.78;5030642;28;20033;-71
2022/01/29 01:55:31;;;;;;;14.30;3.30;;;;;;;3.15;73.61;101758.91;5030264;28;20033;-71
2022/01/29 01:57:57;;;;;;;18.15;3.50;;;;;;;3.13;73.48;101752.72;5026401;28;20041;-71
2022/01/29 02:00:24;;;;;;;15.85;4.03;;;;;;;3.14;73.63;101736.22;5031168;28;20048;-71
2022/01/29 02:02:49;;;;;;;19.85;3.28;;;;;;;3.09;73.73;101730.81;5034208;28;20503;-71
2022/01/29 02:05:15;;;;;;;17.10;3.08;;;;;;;3.10;73.77;101723.91;5033914;28;20045;-71
2022/01/29 02:07:40;;;;;;;16.73;3.40;;;;;;;3.15;73.94;101717.16;5034037;28;20120;-71
2022/01/29 02:10:09;;;;;;;19.20;4.63;;;;;;;3.20;73.15;101713.03;5033833;28;20134;-70
2022/01/29 02:12:49;;;;;;;16.73;3.13;;;;;;;3.17;72.94;101698.16;5034028;28;20041;-71
2022/01/29 02:15:16;;;;;;;15.60;3.15;;;;;;;3.20;72.89;101695.66;5033708;28;20037;-71
2022/01/29 02:17:41;;;;;;;16.55;4.15;;;;;;;3.08;73.19;101695.13;5033731;28;20041;-71
2022/01/29 02:20:07;;;;;;;16.35;3.15;;;;;;;3.02;73.49;101693.16;5033707;28;20033;-71
2022/01/29 02:22:32;;;;;;;15.65;3.35;;;;;;;3.07;73.34;101682.94;5033979;28;20037;-71
2022/01/29 02:24:58;;;;;;;15.20;3.47;;;;;;;3.03;73.30;101676.66;5033461;28;20046;-71
2022/01/29 02:27:23;;;;;;;13.43;3.42;;;;;;;3.01;73.38;101667.91;5033648;28;20033;-71
2022/01/29 02:29:49;;;;;;;17.30;3.53;;;;;;;3.06;73.33;101668.06;5033647;28;20527;-71
2022/01/29 02:32:15;;;;;;;22.70;4.00;;;;;;;3.03;73.05;101658.41;5029474;28;20044;-71
2022/01/29 02:34:43;;;;;;;18.50;3.15;;;;;;;3.11;73.34;101656.13;5033389;28;20037;-72
2022/01/29 02:37:08;;;;;;;11.30;3.13;;;;;;;3.09;73.46;101657.78;5033384;28;20043;-71
2022/01/29 02:39:34;;;;;;;12.43;2.42;;;;;;;3.11;72.97;101666.56;5033493;28;20041;-71
2022/01/29 02:42:00;;;;;;;18.30;3.40;;;;;;;3.14;73.26;101666.69;5033309;28;20072;-71
2022/01/29 02:44:25;;;;;;;19.00;5.38;;;;;;;3.16;73.25;101653.72;5033147;28;20202;-71
2022/01/29 02:46:53;;;;;;;16.10;3.30;;;;;;;3.22;72.93;101653.97;5033116;28;20048;-72
2022/01/29 02:49:21;;;;;;;18.13;3.03;;;;;;;3.23;72.69;101638.38;5033348;28;20434;-72
2022/01/29 02:51:50;;;;;;;23.63;3.72;;;;;;;3.20;72.66;101625.22;5032971;28;20048;-72
2022/01/29 02:54:16;;;;;;;15.85;3.42;;;;;;;3.29;72.79;101615.16;5033148;28;20025;-72
2022/01/29 02:56:42;;;;;;;17.08;3.08;;;;;;;3.32;72.09;101616.09;5032917;28;20037;-71
2022/01/29 02:59:07;;;;;;;15.80;2.92;;;;;;;3.39;72.20;101625.97;5033112;28;20545;-71
2022/01/29 03:01:33;;;;;;;20.92;3.45;;;;;;;3.41;71.84;101606.94;5032991;28;20033;-71
2022/01/29 03:03:58;;;;;;;20.85;4.28;;;;;;;3.36;72.18;101605.88;5033018;28;20041;-71
2022/01/29 03:06:23;;;;;;;15.10;3.42;;;;;;;3.47;71.73;101601.06;5032652;28;20043;-71
2022/01/29 03:08:48;;;;;;;11.82;2.97;;;;;;;3.50;71.78;101615.13;5032974;28;20042;-71
2022/01/29 03:11:19;;;;;;;20.50;3.35;;;;;;;3.54;71.19;101604.78;5032249;28;20039;-71
2022/01/29 03:13:44;;;;;;;10.98;2.65;;;;;;;3.60;71.55;101600.72;5032836;28;20404;-72
2022/01/29 03:16:10;;;;;;;17.05;3.67;;;;;;;3.58;71.32;101607.59;5032528;28;20043;-72
2022/01/29 03:18:35;;;;;;;18.23;2.88;;;;;;;3.62;71.45;101609.50;5032757;28;20056;-72
2022/01/29 03:21:00;;;;;;;15.38;2.83;;;;;;;3.64;71.41;101606.94;5032463;28;20109;-71
2022/01/29 03:23:26;;;;;;;20.30;3.63;;;;;;;3.70;71.73;101599.38;5032717;28;20065;-71
2022/01/29 03:25:51;;;;;;;16.13;3.10;;;;;;;3.73;72.04;101587.31;5032450;28;20121;-71
2022/01/29 03:28:19;;;;;;;12.85;2.92;;;;;;;3.75;72.19;101579.56;5031492;28;20083;-71
2022/01/29 03:30:45;;;;;;;12.65;3.45;;;;;;;3.77;72.35;101571.75;5032352;28;20033;-71
2022/01/29 03:33:10;;;;;;;19.83;4.15;;;;;;;3.81;72.92;101564.09;5032470;28;20040;-71
2022/01/29 03:35:36;;;;;;;15.68;3.72;;;;;;;3.71;73.26;101557.63;5032037;28;20523;-71
2022/01/29 03:38:02;;;;;;;14.18;3.47;;;;;;;3.81;72.97;101565.84;5032283;28;20068;-71
2022/01/29 03:40:29;;;;;;;15.45;2.83;;;;;;;3.82;72.69;101568.47;5032344;28;20040;-71
2022/01/29 03:43:08;;;;;;;15.52;3.17;;;;;;;3.86;73.39;101565.16;5028402;28;20044;-71
2022/01/29 03:45:33;;;;;;;17.95;3.28;;;;;;;3.88;73.25;101554.78;5029445;28;20033;-71
2022/01/29 03:47:59;;;;;;;18.40;3.92;;;;;;;3.77;72.33;101543.91;5032047;28;20541;-71
2022/01/29 03:50:25;;;;;;;13.35;2.92;;;;;;;3.80;72.74;101536.22;5031944;28;20033;-71
2022/01/29 03:52:50;;;;;;;15.07;3.10;;;;;;;3.80;72.47;101536.22;5032110;28;20037;-71
2022/01/29 03:55:16;;;;;;;16.20;3.20;;;;;;;3.83;72.32;101527.63;5031870;28;20120;-71
2022/01/29 03:57:41;;;;;;;16.10;4.05;;;;;;;3.83;71.37;101525.00;5033438;28;20507;-71
2022/01/29 04:00:07;;;;;;;18.27;3.08;;;;;;;3.87;72.10;101517.31;5037341;28;20040;-70
2022/01/29 04:02:33;;;;;;;18.80;3.75;;;;;;;3.83;71.19;101517.16;5036431;28;20033;-71
2022/01/29 04:04:58;;;;;;;17.80;3.75;;;;;;;3.88;71.11;101502.56;5031732;28;20037;-71
2022/01/29 04:07:24;;;;;;;16.40;3.28;;;;;;;3.91;70.94;101502.66;5031833;28;20639;-71
2022/01/29 04:09:51;;;;;;;13.95;3.10;;;;;;;3.89;70.55;101492.16;5028796;28;20038;-71
2022/01/29 04:12:17;;;;;;;14.02;2.95;;;;;;;3.96;71.11;101493.28;5031690;28;20045;-72
2022/01/29 04:14:43;;;;;;;10.30;2.70;;;;;;;3.93;71.11;101490.56;5031442;28;20120;-72
2022/01/29 04:17:11;;;;;;;10.73;2.22;;;;;;;4.06;71.05;101476.19;5026309;28;20112;-72
2022/01/29 04:19:37;;;;;;;14.48;3.53;;;;;;;4.08;70.25;101479.75;5030937;28;20482;-71
2022/01/29 04:22:04;;;;;;;15.40;3.17;;;;;;;3.98;70.72;101475.91;5028672;28;20095;-71
2022/01/29 04:24:30;;;;;;;14.63;3.22;;;;;;;4.05;70.66;101469.19;5030796;28;20048;-72
2022/01/29 04:26:56;;;;;;;12.18;3.25;;;;;;;4.04;70.75;101463.09;5031563;28;20037;-72
2022/01/29 04:29:21;;;;;;;13.65;2.78;;;;;;;4.04;70.97;101456.97;5031441;28;20503;-71
2022/01/29 04:34:18;;;;;;;12.97;3.57;;;;;;;4.07;70.56;101447.53;5026295;28;20079;-71
2022/01/29 04:36:43;;;;;;;16.85;3.30;;;;;;;4.08;70.72;101437.94;5031245;28;20427;-71
2022/01/29 04:39:09;;;;;;;16.88;3.47;;;;;;;4.03;71.04;101452.56;5031458;28;20075;-71
2022/01/29 04:41:34;;;;;;;13.85;3.22;;;;;;;4.07;70.68;101434.47;5031345;28;20410;-71
2022/01/29 04:43:59;;;;;;;11.88;2.97;;;;;;;3.97;71.20;101424.53;5031340;28;20448;-72
2022/01/29 04:46:25;;;;;;;18.20;3.15;;;;;;;3.99;70.86;101432.44;5030987;28;20968;-72
2022/01/29 04:48:50;;;;;;;17.08;4.22;;;;;;;4.04;70.99;101425.63;5031134;28;20524;-71
2022/01/29 04:51:15;;;;;;;16.83;3.30;;;;;;;4.06;71.76;101418.72;5031095;28;20121;-71
2022/01/29 04:53:40;;;;;;;17.42;3.33;;;;;;;4.04;71.50;101415.19;5030649;28;20556;-71
2022/01/29 04:56:07;;;;;;;17.48;3.45;;;;;;;4.05;71.56;101409.13;5030510;28;20407;-71
2022/01/29 04:58:33;;;;;;;15.98;3.30;;;;;;;4.01;71.83;101405.53;5029129;28;20099;-71
2022/01/29 05:00:58;;;;;;;10.98;2.33;;;;;;;4.04;71.39;101389.94;5031160;28;20441;-71
2022/01/29 05:03:23;;;;;;;15.98;3.60;;;;;;;4.07;71.99;101400.50;5030930;28;20048;-71
2022/01/29 05:05:49;;;;;;;14.88;2.97;;;;;;;4.07;71.88;101394.38;5030878;28;20036;-71
2022/01/29 05:08:14;;;;;;;13.90;3.67;;;;;;;4.10;71.62;101392.75;5031058;28;20492;-71
2022/01/29 05:10:39;;;;;;;16.17;3.60;;;;;;;4.13;72.13;101391.97;5030812;28;20522;-71
2022/01/29 05:13:08;;;;;;;15.27;3.00;;;;;;;4.15;71.84;101391.19;5031066;28;20439;-72
2022/01/29 05:16:05;;;;;;;12.95;3.47;;;;;;;4.20;71.67;101382.63;5030750;28;20472;-71
2022/01/29 05:27:08;;;;;;;9.70;3.15;;;;;;;4.28;72.19;101368.09;5008673;28;20580;-71
2022/01/29 05:29:34;;;;;;;16.10;3.17;;;;;;;4.26;72.10;101357.56;5027977;28;20125;-70
2022/01/29 05:32:02;;;;;;;13.60;3.38;;;;;;;4.28;72.16;101358.53;5030609;28;20131;-71
2022/01/29 05:34:28;;;;;;;9.93;3.25;;;;;;;4.32;72.09;101360.41;5030540;28;20115;-71
2022/01/29 05:36:53;;;;;;;11.70;3.58;;;;;;;4.28;72.10;101353.28;5033965;28;20079;-72
2022/01/29 05:39:20;;;;;;;12.98;3.90;;;;;;;4.34;72.10;101345.63;5034629;28;20040;-71
2022/01/29 05:41:45;;;;;;;15.18;3.17;;;;;;;4.36;72.42;101343.97;5034525;28;20033;-72
2022/01/29 05:44:10;;;;;;;15.57;3.83;;;;;;;4.39;72.15;101337.97;5034524;28;20040;-72
2022/01/29 05:46:36;;;;;;;11.60;3.20;;;;;;;4.46;72.59;101328.59;5034204;28;20411;-71
2022/01/29 05:49:01;;;;;;;12.10;3.83;;;;;;;4.38;72.36;101324.00;5034066;28;20385;-72
2022/01/29 05:51:30;;;;;;;10.63;3.72;;;;;;;4.47;72.83;101332.97;5032073;28;20037;-72
2022/01/29 05:53:59;;;;;;;15.20;4.57;;;;;;;4.49;73.76;101326.06;5034097;28;20029;-71
2022/01/29 05:56:25;;;;;;;14.88;4.25;;;;;;;4.41;74.60;101311.88;5031032;28;20480;-71
2022/01/29 05:58:51;;;;;;;12.20;4.50;;;;;;;4.36;74.92;101312.59;5034234;28;20083;-71
2022/01/29 06:01:16;;;;;;;13.98;4.43;;;;;;;4.35;75.74;101307.34;5034035;28;20153;-71
2022/01/29 06:03:41;;;;;;;14.00;4.80;;;;;;;4.31;75.83;101302.84;5034086;28;20044;-72
2022/01/29 06:06:07;;;;;;;13.27;4.88;;;;;;;4.35;75.97;101303.00;5032915;28;20040;-72
2022/01/29 06:08:32;;;;;;;13.70;4.72;;;;;;;4.36;75.38;101289.09;5032831;28;20029;-72
2022/01/29 06:10:57;;;;;;;12.02;4.82;;;;;;;4.34;76.00;101285.53;5033768;28;20439;-72
2022/01/29 06:13:23;;;;;;;14.65;5.32;;;;;;;4.33;75.96;101281.16;5033866;28;20048;-72
2022/01/29 06:15:50;;;;;;;9.45;4.85;;;;;;;4.34;76.32;101274.19;5032151;28;20072;-72
2022/01/29 06:18:22;;;;;;;11.10;5.05;;;;;;;4.38;76.26;101266.50;5033805;28;20500;-72
2022/01/29 06:20:54;;;;;;;12.18;5.78;;;;;;;4.34;76.95;101272.47;5033871;28;20041;-74
2022/01/29 06:23:42;;;;;;;16.60;6.10;;;;;;;4.33;76.74;101257.63;5033902;28;20065;-72
2022/01/29 06:26:09;;;;;;;16.65;6.63;;;;;;;4.39;77.05;101254.31;5030565;28;20053;-71
2022/01/29 06:28:35;;;;;;;14.23;5.70;;;;;;;4.38;77.33;101242.97;5032487;28;20037;-71
2022/01/29 06:31:00;;;;;;;15.82;7.10;;;;;;;4.42;77.10;101248.31;5033387;28;20119;-71
2022/01/29 06:33:26;;;;;;;10.57;6.35;;;;;;;4.43;77.22;101248.38;5031891;28;20116;-71
2022/01/29 06:35:52;;;;;;;11.57;5.85;;;;;;;4.49;77.07;101237.19;5033426;28;20393;-71
2022/01/29 06:38:17;;;;;;;11.43;5.55;;;;;;;4.50;76.93;101233.72;5029668;28;20037;-71
2022/01/29 06:40:43;;;;;;;14.18;6.03;;;;;;;4.47;77.22;101217.97;5033406;28;20072;-71
2022/01/29 06:43:09;;;;;;;10.55;5.53;;;;;;;4.49;77.39;101221.50;5033551;28;20052;-71
2022/01/29 06:45:36;;;;;;;10.55;5.53;;;;;;;4.54;77.27;101222.53;5032770;28;20125;-72
2022/01/29 06:48:03;;;;;;;11.23;5.57;;;;;;;4.51;77.21;101222.44;5032944;28;20025;-72
2022/01/29 06:50:29;;;;;;;13.05;6.32;;;;;;;4.55;77.12;101216.44;5033169;28;20435;-72
2022/01/29 06:52:54;;;;;;;12.07;5.70;;;;;;;4.58;76.82;101211.31;5033144;28;20034;-72
2022/01/29 06:55:20;;;;;;;12.82;5.63;;;;;;;4.68;76.37;101209.84;5033041;28;20100;-72
2022/01/29 06:57:46;;;;;;;11.85;6.07;;;;;;;4.73;75.84;101200.41;5033061;28;20496;-71
2022/01/29 07:00:12;;;;;;;14.35;6.32;;;;;;;4.67;76.53;101200.25;5032978;28;20049;-71
2022/01/29 07:02:38;;;;;;;10.57;5.93;;;;;;;4.67;76.54;101193.28;5032315;28;20143;-72
2022/01/29 07:05:05;;;;;;;10.30;6.18;;;;;;;4.79;76.68;101192.72;5032335;28;20562;-71
2022/01/29 07:07:31;;;;;;;10.82;6.53;;;;;;;4.69;77.34;101194.22;5032907;28;20037;-71
2022/01/29 07:09:56;;;;;;;11.65;5.97;;;;;;;4.58;78.46;101193.91;5029727;28;20083;-71
2022/01/29 07:12:22;;;;;;;11.75;6.47;;;;;;;4.61;78.05;101187.88;5032477;28;20456;-71
2022/01/29 07:14:49;;;;;;;12.88;6.15;;;;;;;4.64;78.45;101195.81;5031556;28;20365;-71
2022/01/29 07:17:17;;;;;;;11.30;6.68;;;;;;;4.66;79.05;101183.66;5032737;28;20373;-71
2022/01/29 07:19:44;;;;;;;12.77;6.57;;;;;;;4.52;79.82;101177.16;5028965;28;20025;-71
2022/01/29 07:22:09;;;;;;;11.13;6.70;;;;;;;4.54;80.35;101173.75;5032682;28;20033;-71
2022/01/29 07:24:35;;;;;;;14.30;6.13;;;;;;;4.51;80.89;101183.25;5032341;28;20037;-71
2022/01/29 07:27:02;;;;;;;12.73;6.97;;;;;;;4.50;81.26;101177.09;5032494;28;20079;-70
2022/01/29 07:29:27;;;;;;;12.50;7.00;;;;;;;4.46;81.85;101171.78;5032837;28;20048;-71
2022/01/29 07:31:54;;;;;;;11.98;6.97;;;;;;;4.47;81.74;101176.13;5034253;28;20466;-70
2022/01/29 07:34:19;;;;;;;14.50;6.85;;;;;;;4.44;82.24;101179.56;5033352;28;20120;-71
2022/01/29 07:36:44;;;;;;;13.43;7.50;;;;;;;4.39;82.60;101173.31;5032281;28;20047;-71
2022/01/29 07:39:10;;;;;;;10.02;6.70;;;;;;;4.36;83.25;101168.00;5031919;28;20046;-71
2022/01/29 07:41:35;;;;;;;11.52;6.00;;;;;;;4.30;83.68;101158.25;5032158;28;20048;-72
2022/01/29 07:44:06;;;;;;;11.65;7.28;;;;;;;4.28;84.62;101153.81;5031042;28;20117;-72
2022/01/29 07:46:32;;;;;;;14.23;6.90;;;;;;;4.30;84.16;101162.59;5031524;28;20124;-72
2022/01/29 07:48:57;;;;;;;11.93;7.07;;;;;;;4.22;85.04;101146.69;5031671;28;20033;-72
2022/01/29 07:51:22;;;;;;;13.02;7.72;;;;;;;4.24;85.45;101146.72;5027973;28;20037;-72
2022/01/29 07:53:48;;;;;;;11.30;6.97;;;;;;;4.23;85.71;101137.13;5032090;28;20056;-72
2022/01/29 07:56:14;;;;;;;11.73;6.70;;;;;;;4.25;85.70;101133.72;5028335;28;20053;-72
2022/01/29 07:58:40;;;;;;;12.02;7.50;;;;;;;4.18;86.97;101137.84;5021058;28;20036;-74
2022/01/29 08:01:05;;;;;;;15.50;7.55;;;;;;;4.16;87.28;101133.44;5028942;28;20385;-72
2022/01/29 08:03:30;;;;;;;12.55;7.57;;;;;;;4.15;87.42;101131.66;5031898;28;20451;-72
2022/01/29 08:05:55;;;;;;;12.63;8.07;;;;;;;4.16;88.00;101128.19;5031580;28;20484;-72
2022/01/29 08:08:21;;;;;;;13.02;7.43;;;;;;;4.15;87.95;101126.44;5027273;28;20124;-72
2022/01/29 08:10:46;;;;;;;14.73;8.13;;;;;;;4.17;88.14;101111.69;5031547;28;20076;-72
2022/01/29 08:13:12;;;;;;;12.95;7.57;;;;;;;4.14;88.65;101114.22;5024747;28;20484;-72
2022/01/29 08:15:37;;;;;;;12.60;7.20;;;;;;;4.20;89.17;101114.41;5029505;28;20480;-72
2022/01/29 08:18:03;;;;;;;16.60;8.05;;;;;;;4.19;88.85;101115.22;5027459;28;20064;-72
2022/01/29 08:20:29;;;;;;;12.35;7.68;;;;;;;4.21;88.98;101103.09;5030273;28;20041;-72
2022/01/29 08:22:54;;;;;;;13.25;7.82;;;;;;;4.20;89.49;101097.84;5031291;28;20029;-72
2022/01/29 08:25:19;;;;;;;13.70;8.27;;;;;;;4.18;90.01;101085.59;5031337;28;20059;-72
2022/01/29 08:27:45;;;;;;;13.68;8.55;;;;;;;4.30;89.81;101087.69;5031459;28;20099;-72
2022/01/29 08:30:10;;;;;;;11.63;7.10;;;;;;;4.30;89.79;101078.97;5031319;28;20029;-73
2022/01/29 08:32:41;;;;;;;14.65;7.70;;;;;;;4.22;90.09;101081.38;5031351;28;20492;-72
2022/01/29 08:35:08;;;;;;;11.40;7.47;;;;;;;4.28;90.24;101076.31;5031166;28;20107;-72
2022/01/29 08:37:34;;;;;;;14.32;8.30;;;;;;;4.26;90.45;101064.03;5031318;28;20112;-73
2022/01/29 08:39:59;;;;;;;14.13;8.18;;;;;;;4.29;90.98;101056.28;5031337;28;20121;-73
2022/01/29 08:42:24;;;;;;;14.30;7.65;;;;;;;4.25;91.38;101060.56;5030758;28;20060;-73
2022/01/29 08:44:50;;;;;;;15.00;8.43;;;;;;;4.32;90.53;101059.88;5028448;28;20041;-73
2022/01/29 08:47:15;;;;;;;14.88;8.50;;;;;;;4.27;90.73;101069.31;5030161;28;20110;-72
2022/01/29 08:49:40;;;;;;;12.07;7.13;;;;;;;4.29;90.87;101044.09;5031276;28;20029;-73
2022/01/29 08:52:06;;;;;;;13.50;8.18;;;;;;;4.37;90.28;101045.19;5031057;28;20404;-73
2022/01/29 08:54:31;;;;;;;12.32;7.45;;;;;;;4.37;91.02;101039.97;5030931;28;20481;-74
2022/01/29 08:56:56;;;;;;;15.18;8.70;;;;;;;4.33;91.81;101032.91;5029985;28;20061;-75
2022/01/29 08:59:22;;;;;;;14.07;8.88;;;;;;;4.36;91.15;101032.97;5029816;28;20083;-73
2022/01/29 09:01:47;;;;;;;14.00;9.30;;;;;;;4.29;92.12;101007.50;5030949;28;20057;-73
2022/01/29 09:04:12;;;;;;;18.05;9.90;;;;;;;4.32;91.49;101010.25;5030543;28;20076;-74
2022/01/29 09:06:38;;;;;;;17.10;9.45;;;;;;;4.32;91.83;100994.56;5030709;28;20062;-74
2022/01/29 09:09:03;;;;;;;16.50;10.07;;;;;;;4.41;92.41;101003.47;5031443;28;20061;-74
2022/01/29 09:11:29;;;;;;;15.77;8.63;;;;;;;4.41;91.46;100993.03;5033399;28;20435;-74
2022/01/29 09:13:54;;;;;;;15.10;9.27;;;;;;;4.43;92.38;100994.84;5033799;28;20095;-74
2022/01/29 09:16:19;;;;;;;15.43;9.32;;;;;;;4.43;92.54;100988.69;5034054;28;20037;-74
2022/01/29 09:18:45;;;;;;;14.98;9.95;;;;;;;4.38;93.45;100988.59;5028335;28;20040;-74
2022/01/29 09:21:12;;;;;;;15.77;9.52;;;;;;;4.35;93.34;100980.69;5030026;28;20053;-74
2022/01/29 09:23:37;;;;;;;17.23;9.50;;;;;;;4.29;94.37;100976.16;5029330;28;20056;-74
2022/01/29 09:26:02;;;;;;;17.95;11.23;;;;;;;4.26;94.48;100985.66;5029567;28;20038;-74
2022/01/29 09:28:28;;;;;;;15.23;8.48;;;;;;;4.36;94.59;100977.22;5027455;28;20056;-74
2022/01/29 09:30:53;;;;;;;17.42;10.60;;;;;;;4.25;94.32;100971.72;5030805;28;20115;-74
2022/01/29 09:33:19;;;;;;;14.20;9.07;;;;;;;4.33;94.35;100961.47;5025914;28;20036;-73
2022/01/29 09:35:44;;;;;;;14.80;8.43;;;;;;;4.37;94.45;100972.00;5029304;28;20495;-74
2022/01/29 09:38:11;;;;;;;18.73;9.93;;;;;;;4.36;94.09;100975.47;5031904;28;20041;-73
2022/01/29 09:40:37;;;;;;;14.25;8.23;;;;;;;4.39;94.20;100980.78;5030709;28;20415;-74
2022/01/29 09:43:06;;;;;;;16.90;9.30;;;;;;;4.44;94.18;100972.19;5032286;28;20539;-74
2022/01/29 09:45:32;;;;;;;15.55;8.88;;;;;;;4.43;94.72;100973.03;5030312;28;20057;-75
2022/01/29 09:48:04;;;;;;;12.48;7.78;;;;;;;4.51;93.63;100981.97;5028467;28;20029;-75
2022/01/29 09:50:35;;;;;;;15.75;8.65;;;;;;;4.47;94.29;100987.94;5028190;28;20061;-74
2022/01/29 09:53:02;;;;;;;15.35;8.77;;;;;;;4.45;93.80;100982.66;5031209;28;20038;-75
2022/01/29 09:55:29;;;;;;;15.13;9.32;;;;;;;4.49;94.02;100975.81;5028576;28;20488;-74
2022/01/29 09:57:55;;;;;;;12.85;7.90;;;;;;;4.50;94.14;100970.59;5034411;28;20049;-77
2022/01/29 10:00:21;;;;;;;17.13;8.43;;;;;;;4.51;94.38;100959.31;5034537;28;20040;-74
2022/01/29 10:03:11;;;;;;;16.17;8.70;;;;;;;4.53;94.14;100951.50;5034215;28;20045;-75
2022/01/29 10:05:39;;;;;;;10.55;6.75;;;;;;;4.56;94.53;100960.31;5032478;28;20079;-74
2022/01/29 10:08:05;;;;;;;12.25;7.03;;;;;;;4.65;93.69;100943.97;5032505;28;20492;-73
2022/01/29 10:10:39;;;;;;;14.95;8.15;;;;;;;4.68;93.54;100930.97;5032608;28;20040;-73
2022/01/29 10:13:33;;;;;;;12.45;7.20;;;;;;;4.76;92.56;100934.66;5033885;28;20040;-74
2022/01/29 10:16:08;;;;;;;11.30;7.40;;;;;;;4.87;92.10;100934.03;5031989;28;20041;-74
2022/01/29 10:18:35;;;;;;;10.93;6.60;;;;;;;4.90;91.88;100926.25;5032733;28;20510;-73
2022/01/29 10:21:17;;;;;;;13.60;7.50;;;;;;;4.99;91.22;100911.66;5032127;28;20037;-73
2022/01/29 10:23:44;;;;;;;12.02;6.72;;;;;;;5.06;90.41;100923.16;5027777;28;20052;-74
2022/01/29 10:26:10;;;;;;;11.93;5.53;;;;;;;5.12;89.59;100920.66;5031958;28;20072;-74
2022/01/29 10:28:37;;;;;;;10.52;6.10;;;;;;;5.16;89.64;100927.75;5031531;28;20091;-74
2022/01/29 10:31:07;;;;;;;10.30;6.55;;;;;;;5.22;88.87;100893.84;5034761;28;20120;-73
2022/01/29 10:33:36;;;;;;;11.48;6.55;;;;;;;5.25;89.05;100904.38;5035018;28;20124;-73
2022/01/29 10:36:09;;;;;;;9.75;6.00;;;;;;;5.34;88.24;100889.72;5039010;28;20041;-73
2022/01/29 10:38:40;;;;;;;12.35;6.07;;;;;;;5.46;87.07;100884.75;5033668;28;20446;-73
2022/01/29 10:41:24;;;;;;;9.70;6.32;;;;;;;5.45;87.94;100875.13;5033509;28;20049;-73
2022/01/29 10:43:55;;;;;;;11.30;5.90;;;;;;;5.54;87.67;100856.97;5033552;28;20037;-73
2022/01/29 10:46:31;;;;;;;9.55;6.13;;;;;;;5.55;87.42;100840.41;5028889;28;20056;-72
2022/01/29 10:48:58;;;;;;;9.07;5.85;;;;;;;5.60;86.67;100849.22;5033228;28;20060;-72
2022/01/29 10:51:24;;;;;;;9.70;6.80;;;;;;;5.64;86.88;100835.34;5031453;28;20120;-73
2022/01/29 10:53:51;;;;;;;23.27;13.45;;;;;;;5.76;86.39;100821.59;5032415;28;20463;-73
2022/01/29 10:56:17;;;;;;;9.88;5.70;;;;;;;5.83;85.74;100818.22;5029514;28;20443;-72
2022/01/29 10:58:44;;;;;;;9.82;5.60;;;;;;;5.84;85.97;100819.09;5030877;28;20034;-71
2022/01/29 11:01:22;;;;;;;8.23;5.28;;;;;;;5.83;85.86;100806.88;5031935;28;20047;-75
2022/01/29 11:03:49;;;;;;;12.85;6.10;;;;;;;5.82;86.05;100798.13;5029539;28;20033;-73
2022/01/29 11:06:21;;;;;;;10.40;6.00;;;;;;;5.89;85.84;100788.63;5032737;28;20037;-72
2022/01/29 11:08:47;;;;;;;8.73;4.43;;;;;;;6.01;84.82;100804.59;5032936;28;20041;-72
2022/01/29 11:11:13;;;;;;;9.05;5.18;;;;;;;6.09;84.95;100796.88;5032823;28;20056;-72
2022/01/29 11:13:40;;;;;;;8.30;5.20;;;;;;;6.13;84.08;100794.34;5030200;28;20041;-73
2022/01/29 11:16:06;;;;;;;9.40;5.22;;;;;;;6.10;85.33;100786.44;5025432;28;20033;-73
2022/01/29 11:18:35;;;;;;;10.32;5.45;;;;;;;6.22;84.32;100787.47;5029224;28;20036;-72
2022/01/29 11:21:01;;;;;;;8.00;4.53;;;;;;;6.20;84.12;100790.06;5026353;28;20491;-72
2022/01/29 11:23:28;;;;;;;8.30;4.57;;;;;;;6.27;84.12;100780.56;5032629;28;20037;-71
2022/01/29 11:25:55;;;;;;;6.28;4.43;;;;;;;6.29;83.00;100779.72;5032487;28;20049;-75
2022/01/29 11:28:23;;;;;;;8.23;4.82;;;;;;;6.26;84.00;100787.56;5026362;28;20664;-72
2022/01/29 11:31:13;;;;;;;7.75;4.97;;;;;;;6.38;83.92;100775.47;5032524;28;20618;-73
2022/01/29 11:33:57;;;;;;;9.35;4.90;;;;;;;6.42;83.74;100765.06;5031644;28;20504;-73
2022/01/29 11:36:23;;;;;;;7.70;4.13;;;;;;;6.50;83.02;100762.56;5029627;28;20037;-73